Time,TemperatureF,DewpointF,PressureIn,WindDirection,WindDirectionDegrees,WindSpeedMPH,WindSpeedGustMPH,Humidity,HourlyPrecipIn,Conditions,Clouds,dailyrainin,SoftwareType,DateUTC
2013-04-03 00:00:00,27.0,17.8,28.94,North,11,2.0,3.6,68,0.00,,,-99.99,FreeWX-Wi 1.01,2013-04-03 05:00:00,
2013-04-03 00:05:00,27.1,17.6,28.94,NNE,14,2.0,4.0,67,0.00,,,-99.99,FreeWX-Wi 1.01,2013-04-03 05:05:00,
2013-04-03 00:10:00,27.0,17.1,28.94,NNE,17,1.0,0.0,66,0.00,,,-99.99,FreeWX-Wi 1.01,2013-04-03 05:10:00,
2013-04-03 00:15:00,26.4,16.7,28.94,NNE,19,1.0,0.0,66,0.00,,,-99.99,FreeWX-Wi 1.01,2013-04-03 05:15:00,
2013-04-03 00:20:00,25.9,15.8,28.94,North,-999,0.0,0.0,65,0.00,,,-99.99,FreeWX-Wi 1.01,2013-04-03 05:20:00,
2013-04-03 00:25:00,25.3,15.6,28.94,North,-999,0.0,0.0,66,0.00,,,-99.99,FreeWX-Wi 1.01,2013-04-03 05:25:00,
2013-04-03 00:31:00,25.0,15.3,28.94,North,-999,0.0,0.0,66,0.00,,,-99.99,FreeWX-Wi 1.01,2013-04-03 05:31:00,
2013-04-03 00:36:00,24.8,15.4,28.94,North,-999,0.0,0.0,67,0.00,,,-99.99,FreeWX-Wi 1.01,2013-04-03 05:36:00,
2013-04-03 00:41:00,24.6,15.3,28.94,North,-999,0.0,0.0,67,0.00,,,-99.99,FreeWX-Wi 1.01,2013-04-03 05:41:00,
2013-04-03 00:46:00,24.8,15.8,28.94,North,-999,0.0,0.0,68,0.00,,,-99.99,FreeWX-Wi 1.01,2013-04-03 05:46:00,
2013-04-03 00:51:00,25.0,15.6,28.94,North,-999,0.0,0.0,67,0.00,,,-99.99,FreeWX-Wi 1.01,2013-04-03 05:51:00,
2013-04-03 00:57:00,25.0,15.3,28.94,North,-999,0.0,0.0,66,0.00,,,-99.99,FreeWX-Wi 1.01,2013-04-03 05:57:00,
2013-04-03 01:02:00,25.0,15.6,28.94,North,-999,0.0,0.0,67,0.00,,,-99.99,FreeWX-Wi 1.01,2013-04-03 06:02:00,
2013-04-03 01:07:00,25.2,16.2,28.94,North,-999,0.0,0.0,68,0.00,,,-99.99,FreeWX-Wi 1.01,2013-04-03 06:07:00,
2013-04-03 01:12:00,24.8,15.8,28.94,North,-999,0.0,0.0,68,0.00,,,-99.99,FreeWX-Wi 1.01,2013-04-03 06:12:00,
2013-04-03 01:17:00,24.6,16.0,28.94,North,-999,0.0,0.0,69,0.00,,,-99.99,FreeWX-Wi 1.01,2013-04-03 06:17:00,
2013-04-03 01:22:00,25.5,18.1,28.94,North,-999,0.0,0.0,73,0.00,,,-99.99,FreeWX-Wi 1.01,2013-04-03 06:22:00,
2013-04-03 01:27:00,26.2,18.9,28.94,North,-999,0.0,0.0,73,0.00,,,-99.99,FreeWX-Wi 1.01,2013-04-03 06:27:00,
2013-04-03 01:33:00,26.4,19.0,28.94,North,-999,0.0,0.0,73,0.00,,,-99.99,FreeWX-Wi 1.01,2013-04-03 06:33:00,
2013-04-03 01:38:00,26.2,18.9,28.94,North,-999,0.0,0.0,73,0.00,,,-99.99,FreeWX-Wi 1.01,2013-04-03 06:38:00,
2013-04-03 01:43:00,25.9,18.1,28.94,North,-999,0.0,0.0,72,0.00,,,-99.99,FreeWX-Wi 1.01,2013-04-03 06:43:00,
2013-04-03 01:48:00,25.2,17.1,28.94,North,-999,0.0,0.0,71,0.00,,,-99.99,FreeWX-Wi 1.01,2013-04-03 06:48:00,
2013-04-03 01:53:00,25.0,16.5,28.94,North,-999,0.0,0.0,70,0.00,,,-99.99,FreeWX-Wi 1.01,2013-04-03 06:53:00,
2013-04-03 01:58:00,24.8,16.7,28.94,North,-999,0.0,0.0,71,0.00,,,-99.99,FreeWX-Wi 1.01,2013-04-03 06:58:00,
2013-04-03 02:03:00,24.6,16.5,28.94,North,-999,0.0,0.0,71,0.00,,,-99.99,FreeWX-Wi 1.01,2013-04-03 07:03:00,
2013-04-03 02:08:00,24.3,16.0,28.94,North,-999,0.0,0.0,70,0.00,,,-99.99,FreeWX-Wi 1.01,2013-04-03 07:08:00,
2013-04-03 02:13:00,24.1,15.8,28.94,North,-999,0.0,0.0,70,0.00,,,-99.99,FreeWX-Wi 1.01,2013-04-03 07:13:00,
2013-04-03 02:18:00,24.1,16.3,28.94,North,-999,0.0,0.0,72,0.00,,,-99.99,FreeWX-Wi 1.01,2013-04-03 07:18:00,
2013-04-03 02:23:00,24.3,16.5,28.94,North,-999,0.0,0.0,72,0.00,,,-99.99,FreeWX-Wi 1.01,2013-04-03 07:23:00,
2013-04-03 02:28:00,24.3,16.5,28.94,North,-999,0.0,0.0,72,0.00,,,-99.99,FreeWX-Wi 1.01,2013-04-03 07:28:00,
2013-04-03 02:33:00,24.3,16.2,28.91,North,-999,0.0,0.0,71,0.00,,,-99.99,FreeWX-Wi 1.01,2013-04-03 07:33:00,
2013-04-03 02:38:00,24.1,15.8,28.91,North,-999,0.0,0.0,70,0.00,,,-99.99,FreeWX-Wi 1.01,2013-04-03 07:38:00,
2013-04-03 02:44:00,23.9,15.6,28.91,North,-999,0.0,0.0,70,0.00,,,-99.99,FreeWX-Wi 1.01,2013-04-03 07:44:00,
2013-04-03 02:49:00,23.7,15.4,28.94,North,-999,0.0,0.0,70,0.00,,,-99.99,FreeWX-Wi 1.01,2013-04-03 07:49:00,
2013-04-03 02:54:00,23.5,15.6,28.94,North,-999,0.0,0.0,71,0.00,,,-99.99,FreeWX-Wi 1.01,2013-04-03 07:54:00,
2013-04-03 02:59:00,23.7,16.0,28.94,North,-999,0.0,0.0,72,0.00,,,-99.99,FreeWX-Wi 1.01,2013-04-03 07:59:00,
2013-04-03 03:04:00,23.9,15.8,28.94,North,-999,0.0,0.0,71,0.00,,,-99.99,FreeWX-Wi 1.01,2013-04-03 08:04:00,
2013-04-03 03:09:00,23.9,15.3,28.94,North,-999,0.0,0.0,69,0.00,,,-99.99,FreeWX-Wi 1.01,2013-04-03 08:09:00,
2013-04-03 03:14:00,23.9,14.9,28.94,North,-999,0.0,0.0,68,0.00,,,-99.99,FreeWX-Wi 1.01,2013-04-03 08:14:00,
2013-04-03 03:19:00,23.9,15.6,28.91,North,-999,0.0,0.0,70,0.00,,,-99.99,FreeWX-Wi 1.01,2013-04-03 08:19:00,
2013-04-03 03:24:00,23.9,15.6,28.91,North,-999,0.0,0.0,70,0.00,,,-99.99,FreeWX-Wi 1.01,2013-04-03 08:24:00,
2013-04-03 03:29:00,23.7,15.4,28.91,North,-999,0.0,0.0,70,0.00,,,-99.99,FreeWX-Wi 1.01,2013-04-03 08:29:00,
2013-04-03 03:34:00,23.5,15.3,28.91,North,-999,0.0,0.0,70,0.00,,,-99.99,FreeWX-Wi 1.01,2013-04-03 08:34:00,
2013-04-03 03:39:00,23.5,15.6,28.91,North,-999,0.0,0.0,71,0.00,,,-99.99,FreeWX-Wi 1.01,2013-04-03 08:39:00,
2013-04-03 03:44:00,23.4,15.4,28.91,North,-999,0.0,0.0,71,0.00,,,-99.99,FreeWX-Wi 1.01,2013-04-03 08:44:00,
2013-04-03 03:50:00,23.4,15.6,28.91,North,-999,0.0,0.0,72,0.00,,,-99.99,FreeWX-Wi 1.01,2013-04-03 08:50:00,
2013-04-03 03:55:00,23.4,16.0,28.91,North,-999,0.0,0.0,73,0.00,,,-99.99,FreeWX-Wi 1.01,2013-04-03 08:55:00,
2013-04-03 04:00:00,23.4,16.0,28.91,North,-999,0.0,0.0,73,0.00,,,-99.99,FreeWX-Wi 1.01,2013-04-03 09:00:00,
2013-04-03 04:05:00,23.4,16.3,28.91,North,-999,0.0,0.0,74,0.00,,,-99.99,FreeWX-Wi 1.01,2013-04-03 09:05:00,
2013-04-03 04:10:00,23.5,16.5,28.91,North,-999,0.0,0.0,74,0.00,,,-99.99,FreeWX-Wi 1.01,2013-04-03 09:10:00,
2013-04-03 04:15:00,23.5,16.2,28.91,North,-999,0.0,0.0,73,0.00,,,-99.99,FreeWX-Wi 1.01,2013-04-03 09:15:00,
2013-04-03 04:20:00,23.4,16.0,28.91,North,-999,0.0,0.0,73,0.00,,,-99.99,FreeWX-Wi 1.01,2013-04-03 09:20:00,
2013-04-03 04:25:00,23.7,17.1,28.91,North,-999,0.0,0.0,75,0.00,,,-99.99,FreeWX-Wi 1.01,2013-04-03 09:25:00,
2013-04-03 04:30:00,24.4,18.9,28.91,North,-999,0.0,0.0,79,0.00,,,-99.99,FreeWX-Wi 1.01,2013-04-03 09:30:00,
2013-04-03 04:35:00,24.1,19.0,28.91,North,-999,0.0,0.0,81,0.00,,,-99.99,FreeWX-Wi 1.01,2013-04-03 09:35:00,
2013-04-03 04:41:00,23.5,18.5,28.91,North,-999,0.0,0.0,81,0.00,,,-99.99,FreeWX-Wi 1.01,2013-04-03 09:41:00,
2013-04-03 04:46:00,23.0,18.3,28.91,North,-999,0.0,0.0,82,0.00,,,-99.99,FreeWX-Wi 1.01,2013-04-03 09:46:00,
2013-04-03 04:51:00,22.6,18.0,28.91,North,-999,0.0,0.0,82,0.00,,,-99.99,FreeWX-Wi 1.01,2013-04-03 09:51:00,
2013-04-03 04:56:00,22.6,18.0,28.91,North,-999,0.0,0.0,82,0.00,,,-99.99,FreeWX-Wi 1.01,2013-04-03 09:56:00,
2013-04-03 05:01:00,22.6,18.3,28.91,North,-999,0.0,0.0,83,0.00,,,-99.99,FreeWX-Wi 1.01,2013-04-03 10:01:00,
2013-04-03 05:06:00,22.5,18.1,28.91,North,-999,0.0,0.0,83,0.00,,,-99.99,FreeWX-Wi 1.01,2013-04-03 10:06:00,
2013-04-03 05:11:00,22.5,18.1,28.91,North,-999,0.0,0.0,83,0.00,,,-99.99,FreeWX-Wi 1.01,2013-04-03 10:11:00,
2013-04-03 05:16:00,22.5,18.1,28.91,North,-999,0.0,0.0,83,0.00,,,-99.99,FreeWX-Wi 1.01,2013-04-03 10:16:00,
2013-04-03 05:27:00,22.6,18.5,28.91,North,-999,0.0,0.0,84,0.00,,,-99.99,FreeWX-Wi 1.01,2013-04-03 10:27:00,
2013-04-03 05:32:00,22.5,18.3,28.91,North,-999,0.0,0.0,84,0.00,,,-99.99,FreeWX-Wi 1.01,2013-04-03 10:32:00,
2013-04-03 05:37:00,22.6,18.9,28.91,North,-999,0.0,0.0,85,0.00,,,-99.99,FreeWX-Wi 1.01,2013-04-03 10:37:00,
2013-04-03 05:42:00,22.8,19.0,28.91,North,-999,0.0,3.1,85,0.00,,,-99.99,FreeWX-Wi 1.01,2013-04-03 10:42:00,
2013-04-03 05:47:00,23.4,19.8,28.91,North,-999,0.0,3.1,86,0.00,,,-99.99,FreeWX-Wi 1.01,2013-04-03 10:47:00,
2013-04-03 05:52:00,23.2,19.6,28.91,North,-999,0.0,3.6,86,0.00,,,-99.99,FreeWX-Wi 1.01,2013-04-03 10:52:00,
2013-04-03 05:57:00,23.4,20.1,28.91,NNE,22,1.0,3.1,87,0.00,,,-99.99,FreeWX-Wi 1.01,2013-04-03 10:57:00,
2013-04-03 06:02:00,23.5,20.5,28.91,NNE,26,2.0,3.6,88,0.00,,,-99.99,FreeWX-Wi 1.01,2013-04-03 11:02:00,
2013-04-03 06:07:00,23.5,20.5,28.91,NE,38,2.0,3.1,88,0.00,,,-99.99,FreeWX-Wi 1.01,2013-04-03 11:07:00,
2013-04-03 06:13:00,23.5,20.5,28.91,NE,54,2.0,3.6,88,0.00,,,-99.99,FreeWX-Wi 1.01,2013-04-03 11:13:00,
2013-04-03 06:18:00,23.5,20.5,28.94,ENE,71,2.0,4.0,88,0.00,,,-99.99,FreeWX-Wi 1.01,2013-04-03 11:18:00,
2013-04-03 06:23:00,23.5,20.5,28.94,East,90,3.0,4.9,88,0.00,,,-99.99,FreeWX-Wi 1.01,2013-04-03 11:23:00,
2013-04-03 06:28:00,23.5,20.3,28.94,ESE,114,3.0,5.4,87,0.00,,,-99.99,FreeWX-Wi 1.01,2013-04-03 11:28:00,
2013-04-03 06:33:00,23.5,19.9,28.94,SE,130,3.0,4.9,86,0.00,,,-99.99,FreeWX-Wi 1.01,2013-04-03 11:33:00,
2013-04-03 06:38:00,23.4,19.6,28.94,SE,142,3.0,3.6,85,0.00,,,-99.99,FreeWX-Wi 1.01,2013-04-03 11:38:00,
2013-04-03 06:43:00,23.4,19.6,28.94,SE,143,3.0,3.6,85,0.00,,,-99.99,FreeWX-Wi 1.01,2013-04-03 11:43:00,
2013-04-03 06:49:00,23.5,19.9,28.94,SE,142,3.0,3.6,86,0.00,,,-99.99,FreeWX-Wi 1.01,2013-04-03 11:49:00,
2013-04-03 06:54:00,23.5,20.5,28.94,SE,134,3.0,3.6,88,0.00,,,-99.99,FreeWX-Wi 1.01,2013-04-03 11:54:00,
2013-04-03 06:59:00,23.5,20.8,28.94,SE,127,3.0,3.6,89,0.00,,,-99.99,FreeWX-Wi 1.01,2013-04-03 11:59:00,
2013-04-03 07:04:00,23.7,21.0,28.97,SE,126,3.0,5.4,89,0.00,,,-99.99,FreeWX-Wi 1.01,2013-04-03 12:04:00,
2013-04-03 07:09:00,24.1,21.4,28.97,SE,134,3.0,5.8,89,0.00,,,-99.99,FreeWX-Wi 1.01,2013-04-03 12:09:00,
2013-04-03 07:14:00,24.3,21.6,28.97,SSE,149,4.0,6.3,89,0.00,,,-99.99,FreeWX-Wi 1.01,2013-04-03 12:14:00,
2013-04-03 07:19:00,24.4,20.8,29.00,SSE,162,4.0,6.3,86,0.00,,,-99.99,FreeWX-Wi 1.01,2013-04-03 12:19:00,
2013-04-03 07:24:00,24.6,20.5,29.00,South,171,4.0,5.8,84,0.00,,,-99.99,FreeWX-Wi 1.01,2013-04-03 12:24:00,
2013-04-03 07:29:00,25.2,20.5,29.00,South,177,4.0,5.8,82,0.00,,,-99.99,FreeWX-Wi 1.01,2013-04-03 12:29:00,
2013-04-03 07:34:00,25.5,20.5,29.00,South,178,5.0,6.3,81,0.00,,,-99.99,FreeWX-Wi 1.01,2013-04-03 12:34:00,
2013-04-03 07:39:00,26.1,20.8,29.00,South,177,4.0,6.3,80,0.00,,,-99.99,FreeWX-Wi 1.01,2013-04-03 12:39:00,
2013-04-03 07:44:00,26.6,20.3,29.00,South,176,4.0,5.8,77,0.00,,,-99.99,FreeWX-Wi 1.01,2013-04-03 12:44:00,
2013-04-03 07:50:00,27.0,19.8,29.00,South,176,4.0,5.8,74,0.00,,,-99.99,FreeWX-Wi 1.01,2013-04-03 12:50:00,
2013-04-03 07:55:00,27.5,19.9,29.00,South,178,5.0,7.6,73,0.00,,,-99.99,FreeWX-Wi 1.01,2013-04-03 12:55:00,
2013-04-03 08:00:00,27.7,19.9,29.00,South,181,5.0,6.3,72,0.00,,,-99.99,FreeWX-Wi 1.01,2013-04-03 13:00:00,
2013-04-03 08:05:00,28.0,19.6,29.00,South,183,5.0,6.3,70,0.00,,,-99.99,FreeWX-Wi 1.01,2013-04-03 13:05:00,
2013-04-03 08:10:00,28.4,18.1,29.00,South,185,5.0,7.6,65,0.00,,,-99.99,FreeWX-Wi 1.01,2013-04-03 13:10:00,
2013-04-03 08:15:00,28.8,18.5,29.00,South,186,5.0,8.1,65,0.00,,,-99.99,FreeWX-Wi 1.01,2013-04-03 13:15:00,
2013-04-03 08:20:00,29.1,18.9,29.00,South,186,5.0,8.3,65,0.00,,,-99.99,FreeWX-Wi 1.01,2013-04-03 13:20:00,
2013-04-03 08:25:00,29.5,17.8,29.00,South,183,5.0,7.6,61,0.00,,,-99.99,FreeWX-Wi 1.01,2013-04-03 13:25:00,
2013-04-03 08:30:00,29.8,15.6,29.00,South,181,6.0,8.1,55,0.00,,,-99.99,FreeWX-Wi 1.01,2013-04-03 13:30:00,
2013-04-03 08:35:00,30.2,16.9,29.00,South,175,6.0,7.6,57,0.00,,,-99.99,FreeWX-Wi 1.01,2013-04-03 13:35:00,
2013-04-03 08:40:00,30.7,18.1,29.00,SSE,166,6.0,8.3,59,0.00,,,-99.99,FreeWX-Wi 1.01,2013-04-03 13:40:00,
2013-04-03 08:45:00,31.1,16.9,29.00,SSE,158,5.0,7.2,55,0.00,,,-99.99,FreeWX-Wi 1.01,2013-04-03 13:45:00,
2013-04-03 08:51:00,31.5,15.8,29.00,SSE,151,6.0,8.3,52,0.00,,,-99.99,FreeWX-Wi 1.01,2013-04-03 13:51:00,
2013-04-03 08:56:00,31.8,16.2,29.00,SE,144,6.0,8.3,52,0.00,,,-99.99,FreeWX-Wi 1.01,2013-04-03 13:56:00,
2013-04-03 09:01:00,32.2,15.6,29.00,SE,139,6.0,8.7,50,0.00,,,-99.99,FreeWX-Wi 1.01,2013-04-03 14:01:00,
2013-04-03 09:06:00,32.7,16.7,29.00,SE,138,6.0,8.7,51,0.00,,,-99.99,FreeWX-Wi 1.01,2013-04-03 14:06:00,
2013-04-03 09:11:00,33.1,16.9,29.00,SE,137,6.0,10.1,51,0.00,,,-99.99,FreeWX-Wi 1.01,2013-04-03 14:11:00,
2013-04-03 09:16:00,33.3,17.1,29.00,SE,135,7.0,10.1,51,0.00,,,-99.99,FreeWX-Wi 1.01,2013-04-03 14:16:00,
2013-04-03 09:21:00,33.6,17.1,29.00,SE,134,7.0,10.1,50,0.00,,,-99.99,FreeWX-Wi 1.01,2013-04-03 14:21:00,
2013-04-03 09:27:00,33.8,16.2,29.00,SE,135,7.0,10.1,48,0.00,,,-99.99,FreeWX-Wi 1.01,2013-04-03 14:27:00,
2013-04-03 09:32:00,34.2,15.1,29.00,SE,136,7.0,10.1,45,0.00,,,-99.99,FreeWX-Wi 1.01,2013-04-03 14:32:00,
2013-04-03 09:37:00,34.2,12.9,28.97,SE,137,8.0,11.0,41,0.00,,,-99.99,FreeWX-Wi 1.01,2013-04-03 14:37:00,
2013-04-03 09:42:00,34.3,13.1,28.97,SE,140,8.0,13.2,41,0.00,,,-99.99,FreeWX-Wi 1.01,2013-04-03 14:42:00,
2013-04-03 09:47:00,34.7,14.5,28.97,SE,139,8.0,13.2,43,0.00,,,-99.99,FreeWX-Wi 1.01,2013-04-03 14:47:00,
2013-04-03 09:52:00,35.1,13.8,28.97,SE,138,8.0,10.5,41,0.00,,,-99.99,FreeWX-Wi 1.01,2013-04-03 14:52:00,
2013-04-03 09:57:00,35.1,13.8,28.97,SE,136,9.0,12.8,41,0.00,,,-99.99,FreeWX-Wi 1.01,2013-04-03 14:57:00,
2013-04-03 10:02:00,35.1,13.8,28.97,SE,135,9.0,12.3,41,0.00,,,-99.99,FreeWX-Wi 1.01,2013-04-03 15:02:00,
2013-04-03 10:08:00,35.2,14.0,28.97,SE,134,10.0,13.6,41,0.00,,,-99.99,FreeWX-Wi 1.01,2013-04-03 15:08:00,
2013-04-03 10:13:00,35.6,11.8,28.97,SE,135,10.0,13.2,37,0.00,,,-99.99,FreeWX-Wi 1.01,2013-04-03 15:13:00,
2013-04-03 10:18:00,36.0,13.5,28.97,SE,137,10.0,13.2,39,0.00,,,-99.99,FreeWX-Wi 1.01,2013-04-03 15:18:00,
2013-04-03 10:23:00,36.1,13.6,28.97,SE,137,10.0,13.2,39,0.00,,,-99.99,FreeWX-Wi 1.01,2013-04-03 15:23:00,
2013-04-03 10:28:00,36.0,13.5,28.97,SE,138,10.0,13.2,39,0.00,,,-99.99,FreeWX-Wi 1.01,2013-04-03 15:28:00,
2013-04-03 10:33:00,36.7,14.0,28.97,SE,140,10.0,13.2,39,0.00,,,-99.99,FreeWX-Wi 1.01,2013-04-03 15:33:00,
2013-04-03 10:38:00,37.4,13.5,28.97,SE,142,10.0,12.8,37,0.00,,,-99.99,FreeWX-Wi 1.01,2013-04-03 15:38:00,
2013-04-03 10:43:00,37.4,12.9,28.97,SE,145,10.0,13.2,36,0.00,,,-99.99,FreeWX-Wi 1.01,2013-04-03 15:43:00,
2013-04-03 10:48:00,37.9,12.7,28.97,SSE,148,10.0,13.2,35,0.00,,,-99.99,FreeWX-Wi 1.01,2013-04-03 15:48:00,
2013-04-03 10:59:00,37.9,12.7,28.97,SSE,156,10.0,13.6,35,0.00,,,-99.99,FreeWX-Wi 1.01,2013-04-03 15:59:00,
2013-04-03 11:04:00,38.1,13.6,28.97,SSE,159,10.0,13.2,36,0.00,,,-99.99,FreeWX-Wi 1.01,2013-04-03 16:04:00,
2013-04-03 11:09:00,38.3,14.4,28.97,SSE,161,10.0,13.2,37,0.00,,,-99.99,FreeWX-Wi 1.01,2013-04-03 16:09:00,
2013-04-03 11:14:00,38.8,12.9,28.97,SSE,161,10.0,12.8,34,0.00,,,-99.99,FreeWX-Wi 1.01,2013-04-03 16:14:00,
2013-04-03 11:19:00,38.3,13.6,28.97,SSE,163,10.0,13.6,36,0.00,,,-99.99,FreeWX-Wi 1.01,2013-04-03 16:19:00,
2013-04-03 11:24:00,38.7,14.0,28.97,SSE,161,10.0,15.0,36,0.00,,,-99.99,FreeWX-Wi 1.01,2013-04-03 16:24:00,
2013-04-03 11:35:00,39.2,13.8,28.97,SSE,156,10.0,13.2,35,0.00,,,-99.99,FreeWX-Wi 1.01,2013-04-03 16:35:00,
2013-04-03 11:40:00,39.4,12.7,28.97,SSE,155,10.0,14.5,33,0.00,,,-99.99,FreeWX-Wi 1.01,2013-04-03 16:40:00,
2013-04-03 11:45:00,39.4,12.7,28.97,SSE,155,11.0,15.0,33,0.00,,,-99.99,FreeWX-Wi 1.01,2013-04-03 16:45:00,
2013-04-03 11:50:00,39.7,13.6,28.97,SSE,151,11.0,14.5,34,0.00,,,-99.99,FreeWX-Wi 1.01,2013-04-03 16:50:00,
2013-04-03 11:55:00,39.9,13.8,28.97,SSE,151,11.0,15.4,34,0.00,,,-99.99,FreeWX-Wi 1.01,2013-04-03 16:55:00,
2013-04-03 12:00:00,40.1,14.0,28.97,SSE,152,11.0,15.9,34,0.00,,,-99.99,FreeWX-Wi 1.01,2013-04-03 17:00:00,
2013-04-03 12:05:00,40.1,14.0,28.97,SSE,154,12.0,15.0,34,0.00,,,-99.99,FreeWX-Wi 1.01,2013-04-03 17:05:00,
2013-04-03 12:10:00,40.3,14.9,28.97,SSE,155,12.0,18.8,35,0.00,,,-99.99,FreeWX-Wi 1.01,2013-04-03 17:10:00,
2013-04-03 12:16:00,40.6,15.1,28.97,SSE,156,12.0,16.3,35,0.00,,,-99.99,FreeWX-Wi 1.01,2013-04-03 17:16:00,
2013-04-03 12:21:00,41.0,14.2,28.97,SSE,160,12.0,16.3,33,0.00,,,-99.99,FreeWX-Wi 1.01,2013-04-03 17:21:00,
2013-04-03 12:31:00,41.2,14.4,28.97,SSE,164,12.0,15.9,33,0.00,,,-99.99,FreeWX-Wi 1.01,2013-04-03 17:31:00,
2013-04-03 12:36:00,41.4,13.1,28.97,SSE,165,12.0,17.0,31,0.00,,,-99.99,FreeWX-Wi 1.01,2013-04-03 17:36:00,
2013-04-03 12:47:00,41.9,16.9,28.97,SSE,168,13.0,15.0,36,0.00,,,-99.99,FreeWX-Wi 1.01,2013-04-03 17:47:00,
2013-04-03 12:52:00,42.4,18.0,28.97,SSE,165,13.0,16.8,37,0.00,,,-99.99,FreeWX-Wi 1.01,2013-04-03 17:52:00,
2013-04-03 12:57:00,42.1,15.8,28.97,SSE,165,13.0,17.4,34,0.00,,,-99.99,FreeWX-Wi 1.01,2013-04-03 17:57:00,
2013-04-03 13:02:00,42.1,17.8,28.97,SSE,164,13.0,17.9,37,0.00,,,-99.99,FreeWX-Wi 1.01,2013-04-03 18:02:00,
2013-04-03 13:07:00,42.4,17.4,28.97,SSE,163,13.0,17.9,36,0.00,,,-99.99,FreeWX-Wi 1.01,2013-04-03 18:07:00,
2013-04-03 13:12:00,43.3,18.1,28.97,SSE,161,13.0,15.9,36,0.00,,,-99.99,FreeWX-Wi 1.01,2013-04-03 18:12:00,
2013-04-03 13:17:00,43.3,16.2,28.97,SSE,159,13.0,18.3,33,0.00,,,-99.99,FreeWX-Wi 1.01,2013-04-03 18:17:00,
2013-04-03 13:23:00,43.3,16.2,28.97,SSE,160,14.0,17.4,33,0.00,,,-99.99,FreeWX-Wi 1.01,2013-04-03 18:23:00,
2013-04-03 13:28:00,43.3,14.7,28.97,SSE,160,13.0,16.3,31,0.00,,,-99.99,FreeWX-Wi 1.01,2013-04-03 18:28:00,
2013-04-03 13:33:00,43.5,17.8,28.94,SSE,159,13.0,17.4,35,0.00,,,-99.99,FreeWX-Wi 1.01,2013-04-03 18:33:00,
2013-04-03 13:38:00,44.1,18.1,28.94,SSE,159,13.0,19.2,35,0.00,,,-99.99,FreeWX-Wi 1.01,2013-04-03 18:38:00,
2013-04-03 13:43:00,44.1,17.4,28.94,SSE,159,13.0,15.4,34,0.00,,,-99.99,FreeWX-Wi 1.01,2013-04-03 18:43:00,
2013-04-03 13:48:00,43.9,19.4,28.94,SSE,159,13.0,17.4,37,0.00,,,-99.99,FreeWX-Wi 1.01,2013-04-03 18:48:00,
2013-04-03 13:59:00,45.1,20.5,28.94,SSE,155,13.0,16.8,37,0.00,,,-99.99,FreeWX-Wi 1.01,2013-04-03 18:59:00,
2013-04-03 14:09:00,45.1,17.1,28.94,SSE,161,12.0,15.9,32,0.00,,,-99.99,FreeWX-Wi 1.01,2013-04-03 19:09:00,
2013-04-03 14:14:00,44.6,18.0,28.94,SSE,161,13.0,17.4,34,0.00,,,-99.99,FreeWX-Wi 1.01,2013-04-03 19:14:00,
2013-04-03 14:20:00,45.0,17.6,28.94,SSE,164,13.0,17.4,33,0.00,,,-99.99,FreeWX-Wi 1.01,2013-04-03 19:20:00,
2013-04-03 14:25:00,45.1,18.5,28.94,SSE,164,13.0,20.1,34,0.00,,,-99.99,FreeWX-Wi 1.01,2013-04-03 19:25:00,
2013-04-03 14:30:00,44.6,18.0,28.94,SSE,165,13.0,17.9,34,0.00,,,-99.99,FreeWX-Wi 1.01,2013-04-03 19:30:00,
2013-04-03 14:35:00,45.3,18.0,28.94,SSE,166,14.0,18.3,33,0.00,,,-99.99,FreeWX-Wi 1.01,2013-04-03 19:35:00,
2013-04-03 14:40:00,45.5,17.4,28.94,South,169,14.0,17.4,32,0.00,,,-99.99,FreeWX-Wi 1.01,2013-04-03 19:40:00,
2013-04-03 14:45:00,46.0,17.8,28.94,South,172,14.0,17.4,32,0.00,,,-99.99,FreeWX-Wi 1.01,2013-04-03 19:45:00,
2013-04-03 14:50:00,46.4,18.9,28.91,South,174,14.0,18.8,33,0.00,,,-99.99,FreeWX-Wi 1.01,2013-04-03 19:50:00,
2013-04-03 14:55:00,46.4,19.6,28.91,South,174,14.0,17.4,34,0.00,,,-99.99,FreeWX-Wi 1.01,2013-04-03 19:55:00,
2013-04-03 15:00:00,46.0,18.5,28.91,South,172,14.0,17.9,33,0.00,,,-99.99,FreeWX-Wi 1.01,2013-04-03 20:00:00,
2013-04-03 15:05:00,46.2,20.1,28.91,South,172,13.0,15.0,35,0.00,,,-99.99,FreeWX-Wi 1.01,2013-04-03 20:05:00,
2013-04-03 15:10:00,46.4,19.6,28.91,South,171,13.0,18.8,34,0.00,,,-99.99,FreeWX-Wi 1.01,2013-04-03 20:10:00,
2013-04-03 15:15:00,46.4,19.6,28.91,South,170,13.0,17.4,34,0.00,,,-99.99,FreeWX-Wi 1.01,2013-04-03 20:15:00,
2013-04-03 15:21:00,46.6,19.0,28.91,South,170,13.0,19.2,33,0.00,,,-99.99,FreeWX-Wi 1.01,2013-04-03 20:21:00,
2013-04-03 15:26:00,46.8,21.9,28.91,South,174,13.0,15.9,37,0.00,,,-99.99,FreeWX-Wi 1.01,2013-04-03 20:26:00,
2013-04-03 15:31:00,47.7,22.1,28.91,South,176,13.0,17.9,36,0.00,,,-99.99,FreeWX-Wi 1.01,2013-04-03 20:31:00,
2013-04-03 15:47:00,46.9,22.1,28.91,South,179,13.0,18.3,37,0.00,,,-99.99,FreeWX-Wi 1.01,2013-04-03 20:47:00,
2013-04-03 15:52:00,46.4,21.6,28.88,South,177,13.0,17.4,37,0.00,,,-99.99,FreeWX-Wi 1.01,2013-04-03 20:52:00,
2013-04-03 15:57:00,46.8,21.9,28.88,South,176,13.0,17.4,37,0.00,,,-99.99,FreeWX-Wi 1.01,2013-04-03 20:57:00,
2013-04-03 16:02:00,46.8,20.7,28.88,South,176,13.0,18.3,35,0.00,,,-99.99,FreeWX-Wi 1.01,2013-04-03 21:02:00,
2013-04-03 16:07:00,46.9,21.4,28.88,South,176,13.0,17.4,36,0.00,,,-99.99,FreeWX-Wi 1.01,2013-04-03 21:07:00,
2013-04-03 16:12:00,47.1,20.8,28.88,South,178,13.0,17.9,35,0.00,,,-99.99,FreeWX-Wi 1.01,2013-04-03 21:12:00,
2013-04-03 16:17:00,46.9,22.1,28.88,South,179,13.0,17.0,37,0.00,,,-99.99,FreeWX-Wi 1.01,2013-04-03 21:17:00,
2013-04-03 16:22:00,46.9,22.1,28.88,South,180,14.0,17.9,37,0.00,,,-99.99,FreeWX-Wi 1.01,2013-04-03 21:22:00,
2013-04-03 16:27:00,46.4,21.6,28.88,South,179,14.0,20.1,37,0.00,,,-99.99,FreeWX-Wi 1.01,2013-04-03 21:27:00,
2013-04-03 16:33:00,46.4,21.6,28.88,South,177,14.0,18.3,37,0.00,,,-99.99,FreeWX-Wi 1.01,2013-04-03 21:33:00,
2013-04-03 16:38:00,46.8,21.9,28.88,South,178,14.0,15.4,37,0.00,,,-99.99,FreeWX-Wi 1.01,2013-04-03 21:38:00,
2013-04-03 16:43:00,46.8,21.9,28.88,South,178,14.0,17.4,37,0.00,,,-99.99,FreeWX-Wi 1.01,2013-04-03 21:43:00,
2013-04-03 16:48:00,46.8,21.9,28.85,South,178,14.0,19.7,37,0.00,,,-99.99,FreeWX-Wi 1.01,2013-04-03 21:48:00,
2013-04-03 16:53:00,46.6,21.7,28.85,South,178,13.0,17.4,37,0.00,,,-99.99,FreeWX-Wi 1.01,2013-04-03 21:53:00,
2013-04-03 16:58:00,46.8,22.5,28.85,South,179,13.0,16.3,38,0.00,,,-99.99,FreeWX-Wi 1.01,2013-04-03 21:58:00,
2013-04-03 17:03:00,46.4,21.6,28.85,South,179,13.0,17.0,37,0.00,,,-99.99,FreeWX-Wi 1.01,2013-04-03 22:03:00,
2013-04-03 17:08:00,46.0,21.9,28.85,South,175,13.0,17.4,38,0.00,,,-99.99,FreeWX-Wi 1.01,2013-04-03 22:08:00,
2013-04-03 17:13:00,46.4,22.8,28.85,South,175,13.0,18.8,39,0.00,,,-99.99,FreeWX-Wi 1.01,2013-04-03 22:13:00,
2013-04-03 17:18:00,45.9,21.7,28.85,South,174,14.0,21.5,38,0.00,,,-99.99,FreeWX-Wi 1.01,2013-04-03 22:18:00,
2013-04-03 17:23:00,45.9,21.7,28.85,South,176,14.0,18.8,38,0.00,,,-99.99,FreeWX-Wi 1.01,2013-04-03 22:23:00,
2013-04-03 17:34:00,45.9,23.0,28.85,South,176,14.0,18.8,40,0.00,,,-99.99,FreeWX-Wi 1.01,2013-04-03 22:34:00,
2013-04-03 17:39:00,45.9,22.3,28.85,South,176,15.0,15.4,39,0.00,,,-99.99,FreeWX-Wi 1.01,2013-04-03 22:39:00,
2013-04-03 17:44:00,45.9,23.0,28.85,South,176,14.0,17.4,40,0.00,,,-99.99,FreeWX-Wi 1.01,2013-04-03 22:44:00,
2013-04-03 17:49:00,45.7,22.1,28.85,South,175,14.0,19.7,39,0.00,,,-99.99,FreeWX-Wi 1.01,2013-04-03 22:49:00,
2013-04-03 17:54:00,45.3,21.9,28.85,South,175,14.0,17.9,39,0.00,,,-99.99,FreeWX-Wi 1.01,2013-04-03 22:54:00,
2013-04-03 17:59:00,45.7,22.1,28.85,South,176,14.0,17.9,39,0.00,,,-99.99,FreeWX-Wi 1.01,2013-04-03 22:59:00,
2013-04-03 18:04:00,45.9,21.7,28.85,South,175,14.0,18.3,38,0.00,,,-99.99,FreeWX-Wi 1.01,2013-04-03 23:04:00,
2013-04-03 18:09:00,46.2,22.1,28.85,South,175,14.0,16.3,38,0.00,,,-99.99,FreeWX-Wi 1.01,2013-04-03 23:09:00,
2013-04-03 18:20:00,46.8,21.9,28.85,South,174,13.0,15.9,37,0.00,,,-99.99,FreeWX-Wi 1.01,2013-04-03 23:20:00,
2013-04-03 18:25:00,46.9,22.1,28.85,South,174,13.0,16.3,37,0.00,,,-99.99,FreeWX-Wi 1.01,2013-04-03 23:25:00,
2013-04-03 18:30:00,46.9,22.1,28.85,South,173,13.0,17.9,37,0.00,,,-99.99,FreeWX-Wi 1.01,2013-04-03 23:30:00,
2013-04-03 18:35:00,45.1,21.7,28.85,South,174,12.0,15.9,39,0.00,,,-99.99,FreeWX-Wi 1.01,2013-04-03 23:35:00,
2013-04-03 18:41:00,43.9,22.8,28.85,South,175,12.0,15.4,43,0.00,,,-99.99,FreeWX-Wi 1.01,2013-04-03 23:41:00,
2013-04-03 18:46:00,43.3,22.3,28.85,South,176,12.0,15.4,43,0.00,,,-99.99,FreeWX-Wi 1.01,2013-04-03 23:46:00,
2013-04-03 18:51:00,43.0,21.6,28.85,South,177,12.0,13.6,42,0.00,,,-99.99,FreeWX-Wi 1.01,2013-04-03 23:51:00,
2013-04-03 19:01:00,43.3,21.7,28.85,South,178,11.0,13.2,42,0.00,,,-99.99,FreeWX-Wi 1.01,2013-04-04 00:01:00,
2013-04-03 19:07:00,43.5,21.9,28.85,South,180,11.0,13.6,42,0.00,,,-99.99,FreeWX-Wi 1.01,2013-04-04 00:07:00,
2013-04-03 19:12:00,43.7,21.6,28.85,South,181,10.0,13.2,41,0.00,,,-99.99,FreeWX-Wi 1.01,2013-04-04 00:12:00,
2013-04-03 19:17:00,42.8,21.4,28.85,South,181,10.0,12.8,42,0.00,,,-99.99,FreeWX-Wi 1.01,2013-04-04 00:17:00,
2013-04-03 19:22:00,41.7,22.5,28.85,South,181,10.0,12.8,46,0.00,,,-99.99,FreeWX-Wi 1.01,2013-04-04 00:22:00,
2013-04-03 19:27:00,40.8,22.6,28.85,South,182,9.0,11.0,48,0.00,,,-99.99,FreeWX-Wi 1.01,2013-04-04 00:27:00,
2013-04-03 19:32:00,40.1,23.0,28.88,South,183,9.0,10.5,50,0.00,,,-99.99,FreeWX-Wi 1.01,2013-04-04 00:32:00,
2013-04-03 19:37:00,39.6,22.5,28.88,South,182,9.0,10.5,50,0.00,,,-99.99,FreeWX-Wi 1.01,2013-04-04 00:37:00,
2013-04-03 19:42:00,39.0,22.8,28.88,South,181,8.0,11.0,52,0.00,,,-99.99,FreeWX-Wi 1.01,2013-04-04 00:42:00,
2013-04-03 19:47:00,38.5,22.8,28.85,South,180,8.0,8.7,53,0.00,,,-99.99,FreeWX-Wi 1.01,2013-04-04 00:47:00,
2013-04-03 19:52:00,37.9,22.8,28.85,South,178,8.0,8.7,54,0.00,,,-99.99,FreeWX-Wi 1.01,2013-04-04 00:52:00,
2013-04-03 19:57:00,37.8,23.0,28.85,South,176,8.0,10.1,55,0.00,,,-99.99,FreeWX-Wi 1.01,2013-04-04 00:57:00,
2013-04-03 20:02:00,37.4,23.2,28.85,South,174,8.0,10.5,56,0.00,,,-99.99,FreeWX-Wi 1.01,2013-04-04 01:02:00,
2013-04-03 20:07:00,37.2,23.0,28.85,South,173,8.0,10.5,56,0.00,,,-99.99,FreeWX-Wi 1.01,2013-04-04 01:07:00,
2013-04-03 20:12:00,36.9,22.6,28.85,South,173,8.0,10.1,56,0.00,,,-99.99,FreeWX-Wi 1.01,2013-04-04 01:12:00,
2013-04-03 20:17:00,36.7,22.5,28.85,South,174,8.0,8.7,56,0.00,,,-99.99,FreeWX-Wi 1.01,2013-04-04 01:17:00,
2013-04-03 20:23:00,36.3,22.6,28.85,South,174,8.0,8.1,57,0.00,,,-99.99,FreeWX-Wi 1.01,2013-04-04 01:23:00,
2013-04-03 20:28:00,36.1,21.9,28.85,South,174,7.0,8.3,56,0.00,,,-99.99,FreeWX-Wi 1.01,2013-04-04 01:28:00,
2013-04-03 20:33:00,36.1,22.5,28.85,South,174,7.0,8.7,57,0.00,,,-99.99,FreeWX-Wi 1.01,2013-04-04 01:33:00,
2013-04-03 20:38:00,36.1,22.5,28.85,South,173,7.0,8.3,57,0.00,,,-99.99,FreeWX-Wi 1.01,2013-04-04 01:38:00,
2013-04-03 20:43:00,36.1,21.9,28.85,South,172,7.0,10.5,56,0.00,,,-99.99,FreeWX-Wi 1.01,2013-04-04 01:43:00,
2013-04-03 20:48:00,36.1,21.9,28.85,South,171,7.0,10.1,56,0.00,,,-99.99,FreeWX-Wi 1.01,2013-04-04 01:48:00,
2013-04-03 20:53:00,36.1,21.9,28.85,South,169,7.0,8.7,56,0.00,,,-99.99,FreeWX-Wi 1.01,2013-04-04 01:53:00,
2013-04-03 21:04:00,35.8,22.1,28.85,SSE,167,7.0,11.0,57,0.00,,,-99.99,FreeWX-Wi 1.01,2013-04-04 02:04:00,
2013-04-03 21:09:00,35.8,22.1,28.85,SSE,166,8.0,10.5,57,0.00,,,-99.99,FreeWX-Wi 1.01,2013-04-04 02:09:00,
2013-04-03 21:14:00,35.8,22.1,28.85,SSE,166,7.0,10.1,57,0.00,,,-99.99,FreeWX-Wi 1.01,2013-04-04 02:14:00,
2013-04-03 21:19:00,35.6,22.3,28.85,SSE,166,7.0,10.1,58,0.00,,,-99.99,FreeWX-Wi 1.01,2013-04-04 02:19:00,
2013-04-03 21:24:00,35.6,22.3,28.85,SSE,168,8.0,10.5,58,0.00,,,-99.99,FreeWX-Wi 1.01,2013-04-04 02:24:00,
2013-04-03 21:29:00,35.6,22.3,28.85,South,170,8.0,11.9,58,0.00,,,-99.99,FreeWX-Wi 1.01,2013-04-04 02:29:00,
2013-04-03 21:34:00,35.6,22.3,28.85,South,172,8.0,10.5,58,0.00,,,-99.99,FreeWX-Wi 1.01,2013-04-04 02:34:00,
2013-04-03 21:39:00,35.4,22.5,28.85,South,175,8.0,10.5,59,0.00,,,-99.99,FreeWX-Wi 1.01,2013-04-04 02:39:00,
2013-04-03 21:44:00,35.4,23.0,28.85,South,176,8.0,11.0,60,0.00,,,-99.99,FreeWX-Wi 1.01,2013-04-04 02:44:00,
2013-04-03 21:50:00,35.4,22.5,28.85,South,176,8.0,11.0,59,0.00,,,-99.99,FreeWX-Wi 1.01,2013-04-04 02:50:00,
2013-04-03 21:55:00,35.4,23.0,28.85,South,176,9.0,11.9,60,0.00,,,-99.99,FreeWX-Wi 1.01,2013-04-04 02:55:00,
2013-04-03 22:00:00,35.4,22.5,28.85,South,175,9.0,12.3,59,0.00,,,-99.99,FreeWX-Wi 1.01,2013-04-04 03:00:00,
2013-04-03 22:05:00,35.4,22.5,28.85,South,175,9.0,11.9,59,0.00,,,-99.99,FreeWX-Wi 1.01,2013-04-04 03:05:00,
2013-04-03 22:10:00,35.2,22.3,28.85,South,174,9.0,11.0,59,0.00,,,-99.99,FreeWX-Wi 1.01,2013-04-04 03:10:00,
2013-04-03 22:15:00,35.2,22.8,28.85,South,175,9.0,12.3,60,0.00,,,-99.99,FreeWX-Wi 1.01,2013-04-04 03:15:00,
2013-04-03 22:20:00,35.1,22.6,28.85,South,175,9.0,11.4,60,0.00,,,-99.99,FreeWX-Wi 1.01,2013-04-04 03:20:00,
2013-04-03 22:26:00,35.1,22.3,28.85,South,176,9.0,12.3,59,0.00,,,-99.99,FreeWX-Wi 1.01,2013-04-04 03:26:00,
2013-04-03 22:36:00,35.1,22.3,28.85,South,176,9.0,13.2,59,0.00,,,-99.99,FreeWX-Wi 1.01,2013-04-04 03:36:00,
2013-04-03 22:41:00,35.1,22.3,28.85,South,175,10.0,13.6,59,0.00,,,-99.99,FreeWX-Wi 1.01,2013-04-04 03:41:00,
2013-04-03 22:46:00,35.1,22.3,28.85,South,174,10.0,12.8,59,0.00,,,-99.99,FreeWX-Wi 1.01,2013-04-04 03:46:00,
2013-04-03 22:57:00,35.1,21.7,28.82,South,173,11.0,15.0,58,0.00,,,-99.99,FreeWX-Wi 1.01,2013-04-04 03:57:00,
2013-04-03 23:02:00,35.1,21.7,28.82,South,174,11.0,17.4,58,0.00,,,-99.99,FreeWX-Wi 1.01,2013-04-04 04:02:00,
2013-04-03 23:07:00,35.1,21.7,28.82,South,174,12.0,16.8,58,0.00,,,-99.99,FreeWX-Wi 1.01,2013-04-04 04:07:00,
2013-04-03 23:12:00,35.1,21.4,28.82,South,175,12.0,15.4,57,0.00,,,-99.99,FreeWX-Wi 1.01,2013-04-04 04:12:00,
2013-04-03 23:17:00,35.1,21.0,28.79,South,176,12.0,15.4,56,0.00,,,-99.99,FreeWX-Wi 1.01,2013-04-04 04:17:00,
2013-04-03 23:22:00,35.4,20.8,28.79,South,178,12.0,13.6,55,0.00,,,-99.99,FreeWX-Wi 1.01,2013-04-04 04:22:00,
2013-04-03 23:28:00,35.4,20.8,28.79,South,179,12.0,16.8,55,0.00,,,-99.99,FreeWX-Wi 1.01,2013-04-04 04:28:00,
2013-04-03 23:33:00,35.6,20.1,28.79,South,179,12.0,16.8,53,0.00,,,-99.99,FreeWX-Wi 1.01,2013-04-04 04:33:00,
2013-04-03 23:38:00,35.6,20.1,28.79,South,180,12.0,17.9,53,0.00,,,-99.99,FreeWX-Wi 1.01,2013-04-04 04:38:00,
2013-04-03 23:43:00,35.6,20.1,28.79,South,181,13.0,17.4,53,0.00,,,-99.99,FreeWX-Wi 1.01,2013-04-04 04:43:00,
2013-04-03 23:48:00,35.4,20.5,28.79,South,181,13.0,16.8,54,0.00,,,-99.99,FreeWX-Wi 1.01,2013-04-04 04:48:00,
2013-04-03 23:53:00,35.2,20.7,28.79,South,181,13.0,17.0,55,0.00,,,-99.99,FreeWX-Wi 1.01,2013-04-04 04:53:00,
2013-04-03 23:58:00,35.1,21.0,28.79,South,182,13.0,15.0,56,0.00,,,-99.99,FreeWX-Wi 1.01,2013-04-04 04:58:00,